createdAt,value
2022-08-04T00:02:37.011Z,99524.22
2022-08-04T00:05:31.358Z,99544.47
2022-08-04T00:08:27.057Z,99540.94
2022-08-04T00:11:17.079Z,99537.66
2022-08-04T00:14:07.643Z,99538.69
2022-08-04T00:16:56.434Z,99547.06
2022-08-04T00:19:47.366Z,99537.03
2022-08-04T00:22:36.191Z,99549.66
2022-08-04T00:25:25.934Z,99553.19
2022-08-04T00:28:14.719Z,99552.00
2022-08-04T00:31:02.881Z,99556.69
2022-08-04T00:33:51.732Z,99547.00
2022-08-04T00:36:40.999Z,99538.69
2022-08-04T00:39:29.144Z,99540.50
2022-08-04T00:42:58.353Z,99534.31
2022-08-04T00:46:17.510Z,99530.97
2022-08-04T00:49:28.196Z,99532.25
2022-08-04T00:52:32.396Z,99536.28
2022-08-04T00:55:44.022Z,99532.31
2022-08-04T00:58:44.779Z,99531.47
2022-08-04T01:01:52.639Z,99515.66
2022-08-04T01:04:50.784Z,99530.94
2022-08-04T01:07:54.905Z,99535.91
2022-08-04T01:10:54.671Z,99528.13
2022-08-04T01:14:01.386Z,99525.53
2022-08-04T01:16:53.286Z,99529.03
2022-08-04T01:19:56.072Z,99529.00
2022-08-04T01:23:26.160Z,99534.34
2022-08-04T01:26:57.915Z,99539.84
2022-08-04T01:29:51.202Z,99529.09
2022-08-04T01:32:53.179Z,99527.19
2022-08-04T01:35:48.594Z,99528.13
2022-08-04T01:38:38.050Z,99525.69
2022-08-04T01:41:32.519Z,99521.44
2022-08-04T01:44:22.516Z,99517.00
2022-08-04T01:47:13.041Z,99520.84
2022-08-04T01:50:09.179Z,99523.25
2022-08-04T01:52:57.429Z,99517.81
2022-08-04T01:55:54.580Z,99523.19
2022-08-04T01:58:43.437Z,99523.59
2022-08-04T02:01:37.750Z,99520.03
2022-08-04T02:04:27.276Z,99525.97
2022-08-04T02:07:28.993Z,99526.94
2022-08-04T02:10:27.924Z,99516.81
2022-08-04T02:13:27.734Z,99517.94
2022-08-04T02:16:24.862Z,99477.44
2022-08-04T02:19:25.949Z,99508.38
2022-08-04T02:22:19.615Z,99508.38
2022-08-04T02:25:09.559Z,99504.00
2022-08-04T02:28:14.064Z,99499.81
2022-08-04T02:31:25.838Z,99494.19
2022-08-04T02:34:23.304Z,99496.84
2022-08-04T02:37:12.449Z,99498.22
2022-08-04T02:40:04.779Z,99497.81
2022-08-04T02:42:54.971Z,99494.34
2022-08-04T02:45:44.323Z,99488.19
2022-08-04T02:48:35.564Z,99490.66
2022-08-04T02:51:26.929Z,99485.72
2022-08-04T02:54:31.699Z,99491.66
2022-08-04T02:57:25.804Z,99481.72
2022-08-04T03:00:15.427Z,99485.59
2022-08-04T03:03:14.737Z,99480.63
2022-08-04T03:06:29.758Z,99482.78
2022-08-04T03:09:52.059Z,99484.59
2022-08-04T03:13:09.275Z,99476.03
2022-08-04T03:16:14.333Z,99484.16
2022-08-04T03:19:37.941Z,99494.84
2022-08-04T03:23:17.870Z,99484.13
2022-08-04T03:26:50.679Z,99488.47
2022-08-04T03:30:14.237Z,99491.09
2022-08-04T03:33:35.455Z,99487.88
2022-08-04T03:36:58.050Z,99490.03
2022-08-04T03:40:20.170Z,99496.38
2022-08-04T03:43:58.325Z,99497.13
2022-08-04T03:47:05.341Z,99498.91
2022-08-04T03:50:32.302Z,99507.66
2022-08-04T03:53:33.357Z,99503.44
2022-08-04T03:56:44.725Z,99507.19
2022-08-04T03:59:50.919Z,99511.28
2022-08-04T04:03:09.468Z,99501.31
2022-08-04T04:06:25.034Z,99508.50
2022-08-04T04:09:57.600Z,99513.94
2022-08-04T04:13:16.729Z,99517.19
2022-08-04T04:16:20.563Z,99515.63
2022-08-04T04:19:24.201Z,99516.88
2022-08-04T04:22:30.998Z,99517.66
2022-08-04T04:25:35.723Z,99510.97
2022-08-04T04:28:43.710Z,99525.88
2022-08-04T04:31:50.315Z,99519.53
2022-08-04T04:34:54.354Z,99522.78
2022-08-04T04:37:57.911Z,99527.59
2022-08-04T04:41:00.952Z,99535.81
2022-08-04T04:44:07.200Z,99534.75
2022-08-04T04:47:04.737Z,99526.81
2022-08-04T04:50:04.246Z,99526.16
2022-08-04T04:52:57.850Z,99534.88
2022-08-04T04:55:52.473Z,99528.66
2022-08-04T05:01:57.321Z,99535.81
2022-08-04T05:05:18.783Z,99531.16
2022-08-04T05:08:43.358Z,99537.72
2022-08-04T05:12:06.164Z,99526.81
2022-08-04T05:15:15.747Z,99534.00
2022-08-04T05:18:07.636Z,99529.31
2022-08-04T05:20:59.326Z,99532.56
2022-08-04T05:23:55.772Z,99545.03
2022-08-04T05:26:47.997Z,99536.94
2022-08-04T05:29:41.067Z,99539.75
2022-08-04T05:32:32.062Z,99539.59
2022-08-04T05:35:53.104Z,99547.22
2022-08-04T05:38:39.490Z,99529.78
2022-08-04T05:41:32.256Z,99543.81
2022-08-04T05:44:35.851Z,99548.75
2022-08-04T05:47:25.833Z,99541.72
2022-08-04T05:50:15.194Z,99544.00
2022-08-04T05:53:04.798Z,99549.16
2022-08-04T05:55:59.023Z,99561.88
2022-08-04T05:58:49.739Z,99559.47
2022-08-04T06:01:55.124Z,99548.94
2022-08-04T06:04:47.876Z,99555.38
2022-08-04T06:07:35.945Z,99557.00
2022-08-04T06:10:47.318Z,99555.34
2022-08-04T06:13:49.496Z,99554.31
2022-08-04T06:16:44.477Z,99551.81
2022-08-04T06:20:00.492Z,99524.97
2022-08-04T06:22:54.847Z,99539.53
2022-08-04T06:25:47.668Z,99548.88
2022-08-04T06:28:36.881Z,99554.09
2022-08-04T06:32:26.792Z,99554.66
2022-08-04T06:34:54.139Z,99557.91
2022-08-04T06:37:44.404Z,99566.03
2022-08-04T06:40:34.812Z,99563.56
2022-08-04T06:43:24.061Z,99493.13
2022-08-04T06:46:15.778Z,99566.31
2022-08-04T06:49:05.564Z,99568.44
2022-08-04T06:51:56.708Z,99571.03
2022-08-04T06:54:45.082Z,99563.72
2022-08-04T06:57:34.941Z,99574.81
2022-08-04T07:00:23.884Z,99565.63
2022-08-04T07:03:15.508Z,99570.78
2022-08-04T07:06:06.130Z,99569.13
2022-08-04T07:09:04.169Z,99573.78
2022-08-04T07:11:54.375Z,99569.41
2022-08-04T07:14:43.820Z,99571.50
2022-08-04T07:17:34.716Z,99575.38
2022-08-04T07:20:35.828Z,99575.25
2022-08-04T07:23:26.626Z,99575.69
2022-08-04T07:26:18.893Z,99571.09
2022-08-04T07:29:07.222Z,99569.59
2022-08-04T07:31:56.532Z,99576.97
2022-08-04T07:34:49.773Z,99578.16
2022-08-04T07:37:39.886Z,99571.19
2022-08-04T07:40:28.422Z,99576.13
2022-08-04T07:43:18.555Z,99554.56
2022-08-04T07:46:06.868Z,99575.03
2022-08-04T07:48:55.080Z,99573.88
2022-08-04T07:51:43.377Z,99572.50
2022-08-04T07:54:31.828Z,99578.06
2022-08-04T07:57:40.752Z,99576.31
2022-08-04T08:00:30.402Z,99578.50
2022-08-04T08:03:21.676Z,99582.34
2022-08-04T08:06:30.810Z,99575.31
2022-08-04T08:09:21.193Z,99575.38
2022-08-04T08:12:38.168Z,99572.34
2022-08-04T08:15:20.483Z,99567.03
2022-08-04T08:18:09.946Z,99565.75
2022-08-04T08:20:59.231Z,99569.00
2022-08-04T08:23:47.884Z,99570.97
2022-08-04T08:26:36.108Z,99564.97
2022-08-04T08:29:25.644Z,99569.28
2022-08-04T08:32:14.246Z,99565.06
2022-08-04T08:35:03.875Z,99559.47
2022-08-04T08:37:56.399Z,99559.00
2022-08-04T08:40:51.710Z,99558.38
2022-08-04T08:44:03.892Z,99556.91
2022-08-04T08:47:10.429Z,99555.91
2022-08-04T08:50:26.996Z,99555.47
2022-08-04T08:53:28.805Z,99555.94
2022-08-04T08:56:31.269Z,99564.34
2022-08-04T08:59:38.788Z,99563.00
2022-08-04T09:03:09.035Z,99551.94
2022-08-04T09:06:10.971Z,99558.16
2022-08-04T09:09:28.729Z,99557.81
2022-08-04T09:12:26.415Z,99557.13
2022-08-04T09:15:18.021Z,99563.91
2022-08-04T09:18:11.806Z,99565.22
2022-08-04T09:21:05.865Z,99555.38
2022-08-04T09:24:04.138Z,99564.94
2022-08-04T09:27:19.388Z,99559.03
2022-08-04T09:30:10.434Z,99567.66
2022-08-04T09:33:08.579Z,99571.44
2022-08-04T09:36:02.337Z,99565.19
2022-08-04T09:39:04.609Z,99572.59
2022-08-04T09:42:05.051Z,99573.91
2022-08-04T09:45:06.382Z,99562.38
2022-08-04T09:48:00.017Z,99566.59
2022-08-04T09:50:58.022Z,99537.44
2022-08-04T09:53:55.915Z,99562.16
2022-08-04T09:56:54.945Z,99542.09
2022-08-04T09:59:50.834Z,99569.34
2022-08-04T10:02:43.552Z,99552.34
2022-08-04T10:05:45.786Z,99544.94
2022-08-04T10:08:48.136Z,99556.75
2022-08-04T10:11:56.001Z,99543.91
2022-08-04T10:14:54.022Z,99538.63
2022-08-04T10:18:05.161Z,99552.78
2022-08-04T10:21:08.033Z,99537.97
2022-08-04T10:24:21.622Z,99538.84
2022-08-04T10:27:15.660Z,99546.00
2022-08-04T10:30:11.883Z,99540.47
2022-08-04T10:33:05.035Z,99541.03
2022-08-04T10:36:01.147Z,99523.41
2022-08-04T10:38:57.574Z,99539.34
2022-08-04T10:41:54.993Z,99535.72
2022-08-04T10:45:05.062Z,99532.69
2022-08-04T10:48:01.517Z,99532.34
2022-08-04T10:51:03.218Z,99530.44
2022-08-04T10:53:56.914Z,99523.22
2022-08-04T10:56:52.914Z,99521.38
2022-08-04T10:59:48.737Z,99521.66
2022-08-04T11:02:47.478Z,99519.03
2022-08-04T11:05:44.159Z,99521.31
2022-08-04T11:08:36.236Z,99513.75
2022-08-04T11:11:31.723Z,99520.94
2022-08-04T11:14:47.864Z,99511.84
2022-08-04T11:17:39.719Z,99508.03
2022-08-04T11:20:36.727Z,99509.41
2022-08-04T11:23:29.767Z,99507.34
2022-08-04T11:26:24.173Z,99516.50
2022-08-04T11:29:23.305Z,99498.72
2022-08-04T11:32:18.409Z,99507.13
2022-08-04T11:35:10.441Z,99454.06
2022-08-04T11:38:13.561Z,99497.94
2022-08-04T11:41:10.785Z,99496.63
2022-08-04T11:44:04.242Z,99506.56
2022-08-04T11:47:01.733Z,99508.84
2022-08-04T11:49:58.159Z,99493.75
2022-08-04T11:52:47.688Z,99493.94
2022-08-04T11:56:07.440Z,99496.00
2022-08-04T11:58:50.578Z,99505.13
2022-08-04T12:01:51.933Z,99500.31
2022-08-04T12:04:48.385Z,99495.69
2022-08-04T12:07:46.593Z,99494.66
2022-08-04T12:10:46.546Z,99498.19
2022-08-04T12:13:43.701Z,99494.41
2022-08-04T12:16:43.240Z,99490.34
2022-08-04T12:19:53.884Z,99461.03
2022-08-04T12:22:50.877Z,99480.44
2022-08-04T12:25:45.058Z,99469.28
2022-08-04T12:29:06.850Z,99471.66
2022-08-04T12:31:49.169Z,99473.66
2022-08-04T12:34:44.138Z,99474.84
2022-08-04T12:37:42.233Z,99465.94
2022-08-04T12:40:34.745Z,99472.03
2022-08-04T12:43:30.711Z,99466.50
2022-08-04T12:46:23.514Z,99465.63
2022-08-04T12:49:13.336Z,99460.50
2022-08-04T12:52:07.460Z,99463.88
2022-08-04T12:54:58.758Z,99464.34
2022-08-04T12:57:48.800Z,99458.19
2022-08-04T13:00:41.747Z,99457.25
2022-08-04T13:03:37.656Z,99448.16
2022-08-04T13:06:28.550Z,99448.84
2022-08-04T13:09:18.908Z,99444.59
2022-08-04T13:12:14.106Z,99445.84
2022-08-04T13:15:17.757Z,99442.03
2022-08-04T13:18:15.099Z,99432.78
2022-08-04T13:21:20.956Z,99431.63
2022-08-04T13:24:21.133Z,99432.16
2022-08-04T13:27:16.269Z,99423.25
2022-08-04T13:30:05.277Z,99414.59
2022-08-04T13:32:56.562Z,99422.31
2022-08-04T13:35:55.546Z,99417.78
2022-08-04T13:38:52.499Z,99415.94
2022-08-04T13:41:46.464Z,99405.88
2022-08-04T13:44:49.893Z,99403.66
2022-08-04T13:47:40.100Z,99405.16
2022-08-04T13:50:30.575Z,99403.59
2022-08-04T13:53:21.894Z,99391.56
2022-08-04T13:56:14.589Z,99397.44
2022-08-04T13:59:05.061Z,99392.03
2022-08-04T14:02:01.385Z,99378.78
2022-08-04T14:04:57.095Z,99382.53
2022-08-04T14:07:48.486Z,99382.31
2022-08-04T14:10:38.567Z,99369.63
2022-08-04T14:13:41.459Z,99373.75
2022-08-04T14:16:30.299Z,99370.13
2022-08-04T14:19:18.294Z,99382.31
2022-08-04T14:22:06.368Z,99380.59
2022-08-04T14:24:58.011Z,99378.25
2022-08-04T14:27:49.549Z,99362.31
2022-08-04T14:30:38.473Z,99374.03
2022-08-04T14:34:02.664Z,99353.66
2022-08-04T14:37:13.399Z,99361.69
2022-08-04T14:40:19.074Z,99339.44
2022-08-04T14:43:09.290Z,99360.94
2022-08-04T14:46:05.665Z,99353.84
2022-08-04T14:49:10.341Z,99356.41
2022-08-04T14:52:01.553Z,99359.66
2022-08-04T14:54:49.655Z,99355.31
2022-08-04T14:58:34.255Z,99348.31
2022-08-04T15:00:47.835Z,99346.38
2022-08-04T15:03:36.358Z,99345.88
2022-08-04T15:06:39.229Z,99337.59
2022-08-04T15:09:27.554Z,99341.31
2022-08-04T15:12:16.588Z,99349.78
2022-08-04T15:15:26.745Z,99343.72
2022-08-04T15:18:14.756Z,99320.56
2022-08-04T15:21:03.990Z,99330.56
2022-08-04T15:23:52.082Z,99338.78
2022-08-04T15:26:45.603Z,99333.34
2022-08-04T15:30:01.328Z,99323.94
2022-08-04T15:32:53.875Z,99326.31
2022-08-04T15:35:48.216Z,99327.00
2022-08-04T15:38:40.510Z,99329.69
2022-08-04T15:41:37.359Z,99321.78
2022-08-04T15:45:04.316Z,99322.19
2022-08-04T15:48:29.648Z,99322.59
2022-08-04T15:51:30.470Z,99313.13
2022-08-04T15:54:27.809Z,99315.09
2022-08-04T15:57:18.673Z,99318.84
2022-08-04T16:00:12.864Z,99316.59
2022-08-04T16:03:03.014Z,99301.28
2022-08-04T16:05:51.148Z,99307.00
2022-08-04T16:08:59.857Z,99309.22
2022-08-04T16:11:47.935Z,99308.63
2022-08-04T16:14:39.677Z,99303.69
2022-08-04T16:17:28.667Z,99296.28
2022-08-04T16:20:17.548Z,99298.06
2022-08-04T16:23:37.550Z,99294.19
2022-08-04T16:26:54.294Z,99291.06
2022-08-04T16:29:44.319Z,99283.75
2022-08-04T16:32:41.861Z,99283.41
2022-08-04T16:35:29.863Z,99281.25
2022-08-04T16:38:17.972Z,99277.31
2022-08-04T16:41:06.283Z,99274.97
2022-08-04T16:44:50.809Z,99286.91
2022-08-04T16:48:04.053Z,99278.00
2022-08-04T16:51:03.163Z,99275.88
2022-08-04T16:54:04.600Z,99281.09
2022-08-04T16:56:53.500Z,99280.59
2022-08-04T16:59:52.424Z,99273.50
2022-08-04T17:02:40.769Z,99279.53
2022-08-04T17:05:39.855Z,99268.78
2022-08-04T17:08:31.511Z,99269.38
2022-08-04T17:11:19.683Z,99264.69
2022-08-04T17:14:07.948Z,99267.31
2022-08-04T17:17:00.103Z,99264.16
2022-08-04T17:19:53.557Z,99276.19
2022-08-04T17:22:41.706Z,99271.13
2022-08-04T17:25:51.656Z,99257.13
2022-08-04T17:28:47.544Z,99262.16
2022-08-04T17:31:39.892Z,99264.81
2022-08-04T17:34:30.211Z,99262.72
2022-08-04T17:37:52.977Z,99260.09
2022-08-04T17:40:31.199Z,99265.97
2022-08-04T17:44:03.015Z,99250.34
2022-08-04T17:46:31.009Z,99264.06
2022-08-04T17:49:23.192Z,99255.03
2022-08-04T17:52:37.467Z,99253.91
2022-08-04T17:55:38.903Z,99261.94
2022-08-04T17:58:27.199Z,99269.97
2022-08-04T18:01:24.594Z,99262.56
2022-08-04T18:04:27.351Z,99256.97
2022-08-04T18:08:38.343Z,99260.50
2022-08-04T18:10:54.292Z,99254.56
2022-08-04T18:13:44.498Z,99255.28
2022-08-04T18:16:43.916Z,99269.69
2022-08-04T18:19:31.929Z,99266.97
2022-08-04T18:22:35.579Z,99265.34
2022-08-04T18:25:23.597Z,99261.69
2022-08-04T18:28:33.584Z,99267.69
2022-08-04T18:31:22.065Z,99263.81
2022-08-04T18:34:19.083Z,99261.31
2022-08-04T18:38:03.301Z,99270.09
2022-08-04T18:40:26.462Z,99265.69
2022-08-04T18:43:28.732Z,99276.94
2022-08-04T18:46:18.617Z,99271.41
2022-08-04T18:49:07.598Z,99275.19
2022-08-04T18:51:56.564Z,99273.22
2022-08-04T18:54:44.615Z,99277.94
2022-08-04T18:58:00.219Z,99280.34
2022-08-04T19:00:45.259Z,99278.84
2022-08-04T19:03:34.052Z,99278.09
2022-08-04T19:06:26.132Z,99281.47
2022-08-04T19:09:20.955Z,99280.97
2022-08-04T19:12:10.274Z,99277.13
2022-08-04T19:15:10.442Z,99292.84
2022-08-04T19:18:00.250Z,99283.84
2022-08-04T19:20:48.994Z,99291.78
2022-08-04T19:24:27.300Z,99298.97
2022-08-04T19:26:49.184Z,99298.72
2022-08-04T19:29:41.332Z,99289.22
2022-08-04T19:32:35.631Z,99307.44
2022-08-04T19:35:23.689Z,99317.69
2022-08-04T19:38:16.077Z,99325.19
2022-08-04T19:41:05.920Z,99322.88
2022-08-04T19:44:03.302Z,99325.44
2022-08-04T19:46:51.326Z,99320.59
2022-08-04T19:50:04.562Z,99320.59
2022-08-04T19:52:52.033Z,99318.03
2022-08-04T19:55:40.471Z,99324.19
2022-08-04T19:58:28.533Z,99326.47
2022-08-04T20:01:33.482Z,99325.19
2022-08-04T20:04:24.827Z,99320.31
2022-08-04T20:07:15.536Z,99328.78
2022-08-04T20:10:05.107Z,99322.59
2022-08-04T20:12:55.574Z,99324.41
2022-08-04T20:15:57.799Z,99330.56
2022-08-04T20:18:55.895Z,99329.28
2022-08-04T20:21:55.544Z,99329.53
2022-08-04T20:24:52.042Z,99338.81
2022-08-04T20:27:59.422Z,99337.22
2022-08-04T20:30:48.727Z,99340.59
2022-08-04T20:33:36.925Z,99340.84
2022-08-04T20:36:25.458Z,99346.75
2022-08-04T20:39:15.736Z,99347.78
2022-08-04T20:42:05.504Z,99348.81
2022-08-04T20:44:54.655Z,99340.84
2022-08-04T20:47:42.676Z,99330.81
2022-08-04T20:50:32.502Z,99329.25
2022-08-04T20:53:20.501Z,99330.25
2022-08-04T20:56:30.530Z,99330.75
2022-08-04T20:59:21.073Z,99332.03
2022-08-04T21:02:16.487Z,99330.75
2022-08-04T21:05:05.451Z,99308.59
2022-08-04T21:07:58.091Z,99333.09
2022-08-04T21:10:47.551Z,99350.53
2022-08-04T21:16:55.227Z,99344.91
2022-08-04T21:19:44.370Z,99353.16
2022-08-04T21:22:37.681Z,99360.84
2022-08-04T21:25:25.910Z,99357.78
2022-08-04T21:28:20.451Z,99348.81
2022-08-04T21:31:22.405Z,99352.41
2022-08-04T21:34:11.998Z,99353.41
2022-08-04T21:37:01.642Z,99359.81
2022-08-04T21:39:50.914Z,99347.72
2022-08-04T21:42:53.425Z,99347.44
2022-08-04T21:45:41.752Z,99347.38
2022-08-04T21:48:30.271Z,99346.06
2022-08-04T21:51:57.433Z,99345.81
2022-08-04T21:54:28.726Z,99346.53
2022-08-04T21:57:16.738Z,99353.16
2022-08-04T22:00:06.815Z,99360.31
2022-08-04T22:03:06.633Z,99356.72
2022-08-04T22:06:09.940Z,99331.50
2022-08-04T22:08:59.279Z,99272.06
2022-08-04T22:11:48.938Z,99341.84
2022-08-04T22:14:39.201Z,99343.72
2022-08-04T22:17:35.317Z,99347.03
2022-08-04T22:20:27.408Z,99350.13
2022-08-04T22:23:19.157Z,99356.75
2022-08-04T22:26:20.144Z,99367.47
2022-08-04T22:29:15.518Z,99363.03
2022-08-04T22:32:04.402Z,99309.38
2022-08-04T22:35:02.998Z,99372.88
2022-08-04T22:38:23.458Z,99363.84
2022-08-04T22:41:15.434Z,99364.25
2022-08-04T22:44:05.011Z,99370.78
2022-08-04T22:46:53.057Z,99370.72
2022-08-04T22:49:41.535Z,99361.53
2022-08-04T22:52:32.117Z,99363.09
2022-08-04T22:55:20.265Z,99365.28
2022-08-04T22:58:09.379Z,99357.00
2022-08-04T23:00:59.460Z,99367.16
2022-08-04T23:03:55.183Z,99364.75
2022-08-04T23:06:44.045Z,99370.84
2022-08-04T23:09:50.060Z,99360.31
2022-08-04T23:12:39.444Z,99358.94
2022-08-04T23:15:33.569Z,99356.94
2022-08-04T23:18:23.402Z,99362.03
2022-08-04T23:21:14.818Z,99373.81
2022-08-04T23:24:03.108Z,99371.22
2022-08-04T23:26:51.194Z,99380.03
2022-08-04T23:29:52.819Z,99387.94
2022-08-04T23:32:43.327Z,99391.44
2022-08-04T23:35:35.213Z,99396.09
2022-08-04T23:38:30.288Z,99411.97
2022-08-04T23:41:19.922Z,99425.63
2022-08-04T23:44:09.867Z,99431.66
2022-08-04T23:46:59.886Z,99437.13
2022-08-04T23:49:47.845Z,99445.66
2022-08-04T23:52:37.198Z,99462.91
2022-08-04T23:55:25.374Z,99458.81
2022-08-04T23:58:26.971Z,99490.53
